Time;durP1;ratioP1;P1;durP2;ratioP2;P2;SDS_P1;SDS_P2;PMS_P1;PMS_P2;Temp;Humidity;BMP_temperature;BMP_pressure;BME280_temperature;BME280_humidity;BME280_pressure;Samples;Min_cycle;Max_cycle;Signal;HPM_P1;HPM_P2
2022/08/25 00:00:16;;;;;;;10.02;8.15;;;18.80;98.30;;;;;;5051298;28;20204;-74
2022/08/25 00:02:45;;;;;;;9.27;7.80;;;18.80;98.50;;;;;;5052091;28;20215;-74
2022/08/25 00:05:30;;;;;;;10.75;7.80;;;18.70;98.70;;;;;;5051279;28;20191;-77
2022/08/25 00:08:00;;;;;;;10.88;7.82;;;18.70;98.90;;;;;;5065751;28;20207;-75
2022/08/25 00:10:30;;;;;;;11.43;8.50;;;18.70;98.90;;;;;;5068569;28;20223;-76
2022/08/25 00:12:59;;;;;;;10.90;8.20;;;18.70;99.00;;;;;;5069449;28;20207;-74
2022/08/25 00:15:30;;;;;;;9.75;8.25;;;18.60;99.00;;;;;;5072331;28;20195;-74
2022/08/25 00:17:59;;;;;;;10.32;8.02;;;18.60;99.10;;;;;;5071007;28;20199;-74
2022/08/25 00:20:29;;;;;;;11.25;8.23;;;18.60;99.10;;;;;;5071468;28;20693;-74
2022/08/25 00:22:58;;;;;;;10.10;7.97;;;18.60;99.30;;;;;;5072434;28;20646;-75
2022/08/25 00:25:27;;;;;;;9.70;7.80;;;18.50;99.40;;;;;;5055002;28;20195;-74
2022/08/25 00:27:57;;;;;;;11.45;8.75;;;18.50;99.50;;;;;;5051052;28;20673;-74
2022/08/25 00:30:26;;;;;;;10.15;8.40;;;18.40;99.60;;;;;;5052264;28;20690;-75
2022/08/25 00:32:55;;;;;;;10.05;7.35;;;18.40;99.90;;;;;;5051233;28;21027;-75
2022/08/25 00:35:26;;;;;;;9.60;6.80;;;18.40;99.80;;;;;;5052234;28;20567;-74
2022/08/25 00:37:55;;;;;;;11.15;8.00;;;18.30;99.90;;;;;;5057619;28;20200;-74
2022/08/25 00:40:25;;;;;;;9.07;7.70;;;18.30;99.90;;;;;;5072223;28;20207;-77
2022/08/25 00:42:55;;;;;;;10.55;8.10;;;18.30;99.90;;;;;;5072398;28;20187;-77
2022/08/25 00:45:25;;;;;;;8.07;7.28;;;18.20;99.90;;;;;;5072689;28;20202;-76
2022/08/25 00:47:54;;;;;;;8.57;7.63;;;18.20;99.90;;;;;;5076150;28;20719;-75
2022/08/25 00:50:29;;;;;;;10.38;7.82;;;18.30;99.90;;;;;;5074740;28;20673;-75
2022/08/25 00:53:02;;;;;;;10.27;7.25;;;18.20;99.90;;;;;;5056482;28;20203;-76
2022/08/25 00:55:35;;;;;;;8.68;7.50;;;18.10;99.90;;;;;;5076182;28;20191;-75
2022/08/25 00:58:12;;;;;;;9.70;7.15;;;18.10;99.90;;;;;;5076198;28;20183;-74
2022/08/25 01:00:45;;;;;;;9.18;7.72;;;18.10;99.90;;;;;;5057952;28;20217;-74
2022/08/25 01:03:14;;;;;;;9.30;7.57;;;18.10;99.90;;;;;;5074670;28;20206;-74
2022/08/25 01:05:43;;;;;;;8.93;8.02;;;18.10;99.90;;;;;;5072496;28;20199;-75
2022/08/25 01:08:13;;;;;;;10.35;8.13;;;18.00;99.90;;;;;;5074411;28;20226;-75
2022/08/25 01:10:46;;;;;;;12.38;7.85;;;18.00;99.90;;;;;;5074539;28;20223;-75
2022/08/25 01:13:19;;;;;;;11.82;7.95;;;18.00;99.90;;;;;;5075992;28;20188;-75
2022/08/25 01:15:52;;;;;;;9.77;8.30;;;18.00;99.90;;;;;;5075865;28;20202;-77
2022/08/25 01:18:21;;;;;;;10.15;8.52;;;17.90;99.90;;;;;;5073714;28;20199;-75
2022/08/25 01:20:52;;;;;;;11.38;8.48;;;17.90;99.90;;;;;;5075448;28;20219;-76
2022/08/25 01:23:22;;;;;;;9.52;7.88;;;17.80;99.90;;;;;;5074500;28;20191;-74
2022/08/25 01:25:58;;;;;;;9.60;7.72;;;17.80;99.90;;;;;;5073904;28;20214;-74
2022/08/25 01:28:27;;;;;;;11.30;8.65;;;17.70;99.90;;;;;;5071406;28;20563;-75
2022/08/25 01:30:56;;;;;;;10.73;8.77;;;17.70;99.90;;;;;;5074706;28;20222;-76
2022/08/25 01:33:25;;;;;;;10.93;8.25;;;17.70;99.90;;;;;;5075527;28;20187;-74
2022/08/25 01:35:55;;;;;;;11.60;8.82;;;17.70;99.90;;;;;;5075262;28;20203;-75
2022/08/25 01:38:24;;;;;;;10.88;8.18;;;17.70;99.90;;;;;;5069314;28;20203;-76
2022/08/25 01:40:53;;;;;;;9.43;7.57;;;17.60;99.90;;;;;;5073946;28;20218;-76
2022/08/25 01:43:35;;;;;;;8.80;7.72;;;17.60;99.90;;;;;;5074418;28;20207;-75
2022/08/25 01:46:04;;;;;;;11.57;8.13;;;17.60;99.90;;;;;;5075050;28;20199;-75
2022/08/25 01:48:33;;;;;;;10.23;8.27;;;17.60;99.90;;;;;;5074235;28;20230;-76
2022/08/25 01:51:04;;;;;;;11.00;8.00;;;17.50;99.90;;;;;;5068746;28;20228;-75
2022/08/25 01:53:33;;;;;;;11.52;8.10;;;17.50;99.90;;;;;;5063266;28;20199;-74
2022/08/25 01:56:10;;;;;;;10.88;7.68;;;17.50;99.90;;;;;;5074604;28;20226;-76
2022/08/25 01:58:42;;;;;;;9.88;7.43;;;17.50;99.90;;;;;;5074546;28;20610;-75
2022/08/25 02:01:14;;;;;;;9.15;8.10;;;17.50;99.90;;;;;;5072563;28;20227;-75
2022/08/25 02:03:49;;;;;;;8.27;7.22;;;17.50;99.90;;;;;;5074168;28;20199;-76
2022/08/25 02:06:23;;;;;;;9.55;7.75;;;17.40;99.90;;;;;;5074475;28;20221;-76
2022/08/25 02:09:00;;;;;;;10.15;7.28;;;17.40;99.90;;;;;;5072659;28;20234;-75
2022/08/25 02:11:29;;;;;;;10.02;7.38;;;17.40;99.90;;;;;;5073928;28;20594;-76
2022/08/25 02:13:59;;;;;;;10.95;8.00;;;17.40;99.90;;;;;;5074390;28;20699;-76
2022/08/25 02:16:31;;;;;;;10.35;8.18;;;17.40;99.90;;;;;;5071757;28;20222;-75
2022/08/25 02:19:00;;;;;;;9.77;8.25;;;17.40;99.90;;;;;;5074030;28;20199;-76
2022/08/25 02:21:31;;;;;;;12.43;8.38;;;17.30;99.90;;;;;;5074100;28;20226;-75
2022/08/25 02:24:00;;;;;;;10.00;7.75;;;17.30;99.90;;;;;;5067307;28;20203;-75
2022/08/25 02:26:29;;;;;;;9.15;8.15;;;17.30;99.90;;;;;;5074172;28;20222;-74
2022/08/25 02:28:58;;;;;;;10.43;7.93;;;17.30;99.90;;;;;;5073898;28;20234;-74
2022/08/25 02:31:27;;;;;;;8.77;7.45;;;17.30;99.90;;;;;;5074100;28;20234;-75
2022/08/25 02:33:56;;;;;;;10.05;7.93;;;17.20;99.90;;;;;;5072662;28;20278;-74
2022/08/25 02:36:25;;;;;;;8.65;7.45;;;17.20;99.90;;;;;;5065444;28;20191;-76
2022/08/25 02:38:56;;;;;;;11.32;8.80;;;17.20;99.90;;;;;;5070299;28;20218;-75
2022/08/25 02:41:25;;;;;;;11.65;8.10;;;17.10;99.90;;;;;;5066905;28;20223;-74
2022/08/25 02:44:00;;;;;;;12.95;8.13;;;17.00;99.90;;;;;;5073619;28;20199;-76
2022/08/25 02:46:29;;;;;;;12.13;8.77;;;17.00;99.90;;;;;;5065745;28;20202;-75
2022/08/25 02:48:59;;;;;;;8.93;7.93;;;17.00;99.90;;;;;;5072361;28;20237;-76
2022/08/25 02:51:29;;;;;;;11.45;8.25;;;17.00;99.90;;;;;;5072432;28;20219;-75
2022/08/25 02:54:01;;;;;;;10.95;8.05;;;17.00;99.90;;;;;;5054824;28;20203;-75
2022/08/25 02:56:32;;;;;;;10.63;8.45;;;17.00;99.90;;;;;;5053370;28;20274;-76
2022/08/25 02:59:01;;;;;;;11.05;8.27;;;17.00;99.90;;;;;;5055206;28;20218;-74
2022/08/25 03:01:31;;;;;;;9.77;8.52;;;16.90;99.90;;;;;;5071047;28;20230;-75
2022/08/25 03:04:01;;;;;;;10.55;8.45;;;16.90;99.90;;;;;;5070706;28;20203;-75
2022/08/25 03:06:30;;;;;;;12.20;8.52;;;16.90;99.90;;;;;;5053032;28;20200;-76
2022/08/25 03:09:01;;;;;;;10.13;8.05;;;16.90;99.90;;;;;;5071587;28;20227;-75
2022/08/25 03:11:30;;;;;;;10.80;8.50;;;16.90;99.90;;;;;;5072823;28;20230;-76
2022/08/25 03:13:59;;;;;;;8.63;7.30;;;16.90;99.90;;;;;;5070627;28;20206;-73
2022/08/25 03:16:28;;;;;;;12.75;8.80;;;16.80;99.90;;;;;;5069506;28;20206;-74
2022/08/25 03:18:58;;;;;;;10.02;8.27;;;16.80;99.90;;;;;;5067347;28;20214;-74
2022/08/25 03:21:28;;;;;;;10.82;8.90;;;16.70;99.90;;;;;;5052748;28;20212;-73
2022/08/25 03:23:58;;;;;;;9.65;8.02;;;16.70;99.90;;;;;;5070172;28;20195;-74
2022/08/25 03:29:15;;;;;;;9.55;6.57;;;16.70;99.90;;;;;;5071554;28;20222;-76
2022/08/25 03:31:44;;;;;;;8.73;6.78;;;16.70;99.90;;;;;;5072860;28;20222;-74
2022/08/25 03:34:15;;;;;;;8.70;7.30;;;16.60;99.90;;;;;;5072934;28;20191;-75
2022/08/25 03:36:45;;;;;;;8.32;7.45;;;16.50;99.90;;;;;;5067565;28;20560;-75
2022/08/25 03:39:14;;;;;;;10.05;7.60;;;16.60;99.90;;;;;;5070008;28;20195;-73
2022/08/25 03:41:45;;;;;;;9.07;7.30;;;16.60;99.90;;;;;;5072688;28;20238;-74
2022/08/25 03:44:16;;;;;;;9.50;7.20;;;16.60;99.90;;;;;;5064761;28;20198;-74
2022/08/25 03:46:47;;;;;;;9.73;7.50;;;16.60;99.90;;;;;;5072823;28;20187;-75
2022/08/25 03:49:19;;;;;;;7.65;6.85;;;16.50;99.90;;;;;;5072692;28;20712;-73
2022/08/25 03:51:50;;;;;;;9.93;7.40;;;16.50;99.90;;;;;;5070152;28;20226;-73
2022/08/25 03:54:23;;;;;;;9.05;6.85;;;16.50;99.90;;;;;;5071241;28;20214;-75
2022/08/25 03:56:53;;;;;;;10.02;7.63;;;16.50;99.90;;;;;;5072772;28;20186;-74
2022/08/25 03:59:22;;;;;;;9.57;7.07;;;16.40;99.90;;;;;;5069017;28;20199;-74
2022/08/25 04:01:51;;;;;;;9.05;7.63;;;16.40;99.90;;;;;;5069966;28;20233;-76
2022/08/25 04:04:23;;;;;;;8.75;7.38;;;16.40;99.90;;;;;;5072651;28;20672;-74
2022/08/25 04:06:52;;;;;;;11.13;6.97;;;16.40;99.90;;;;;;5070402;28;20203;-74
2022/08/25 04:09:22;;;;;;;10.30;8.13;;;16.30;99.90;;;;;;5070579;28;20591;-74
2022/08/25 04:11:53;;;;;;;10.40;7.25;;;16.30;99.90;;;;;;5070289;28;20207;-75
2022/08/25 04:14:22;;;;;;;10.93;7.68;;;16.30;99.90;;;;;;5070936;28;20241;-73
2022/08/25 04:16:52;;;;;;;9.95;8.10;;;16.30;99.90;;;;;;5072269;28;20213;-75
2022/08/25 04:19:21;;;;;;;13.88;8.70;;;16.30;99.90;;;;;;5068649;28;20192;-74
2022/08/25 04:21:50;;;;;;;10.45;8.55;;;16.30;99.90;;;;;;5067556;28;20219;-74
2022/08/25 04:24:24;;;;;;;10.05;8.35;;;16.20;99.90;;;;;;5067079;28;20198;-74
2022/08/25 04:26:54;;;;;;;12.00;8.35;;;16.20;99.90;;;;;;5068566;28;20202;-75
2022/08/25 04:29:25;;;;;;;10.05;8.20;;;16.10;99.90;;;;;;5069129;28;20316;-76
2022/08/25 04:31:54;;;;;;;11.25;8.43;;;16.10;99.90;;;;;;5072345;28;20218;-75
2022/08/25 04:34:26;;;;;;;11.43;7.72;;;16.10;99.90;;;;;;5070327;28;20878;-73
2022/08/25 04:36:59;;;;;;;9.88;7.50;;;16.10;99.90;;;;;;5068574;28;20207;-74
2022/08/25 04:39:29;;;;;;;11.40;7.25;;;16.10;99.90;;;;;;5068432;28;20204;-74
2022/08/25 04:42:00;;;;;;;8.15;7.00;;;16.10;99.90;;;;;;5068484;28;20226;-73
2022/08/25 04:44:29;;;;;;;12.23;7.20;;;16.10;99.90;;;;;;5068372;28;20567;-74
2022/08/25 04:46:58;;;;;;;8.00;6.47;;;16.10;99.90;;;;;;5068625;28;20195;-75
2022/08/25 04:49:28;;;;;;;9.32;6.85;;;16.10;99.90;;;;;;5071990;28;20689;-76
2022/08/25 04:51:56;;;;;;;9.60;7.35;;;16.10;99.90;;;;;;5069645;28;20212;-73
2022/08/25 04:54:29;;;;;;;12.68;8.77;;;16.10;99.90;;;;;;5068356;28;20203;-74
2022/08/25 04:57:06;;;;;;;10.73;8.48;;;16.00;99.90;;;;;;5071997;28;20190;-74
2022/08/25 04:59:35;;;;;;;11.05;8.75;;;16.00;99.90;;;;;;5066748;28;20195;-73
2022/08/25 05:02:05;;;;;;;11.45;8.55;;;16.00;99.90;;;;;;5070070;28;20219;-74
2022/08/25 05:04:36;;;;;;;11.88;9.07;;;16.00;99.90;;;;;;5071960;28;20195;-74
2022/08/25 05:07:05;;;;;;;13.07;9.40;;;16.00;99.90;;;;;;5068818;28;20554;-75
2022/08/25 05:09:34;;;;;;;11.32;8.95;;;16.00;99.90;;;;;;5069316;28;20222;-74
2022/08/25 05:12:03;;;;;;;12.98;9.52;;;16.00;99.90;;;;;;5071699;28;20211;-74
2022/08/25 05:14:33;;;;;;;13.32;9.48;;;16.00;99.90;;;;;;5071740;28;20214;-75
2022/08/25 05:17:02;;;;;;;13.55;10.00;;;16.10;99.90;;;;;;5069396;28;20203;-73
2022/08/25 05:19:31;;;;;;;16.63;12.02;;;16.10;99.90;;;;;;5070242;28;20206;-74
2022/08/25 05:21:59;;;;;;;13.90;11.70;;;16.10;99.90;;;;;;5069390;28;20922;-75
2022/08/25 05:24:28;;;;;;;15.00;11.30;;;16.10;99.90;;;;;;5069872;28;20246;-76
2022/08/25 05:26:57;;;;;;;12.68;10.32;;;16.10;99.90;;;;;;5069487;28;20380;-76
2022/08/25 05:29:26;;;;;;;13.95;9.90;;;16.10;99.90;;;;;;5067376;28;20219;-75
2022/08/25 05:31:56;;;;;;;13.38;10.20;;;16.20;99.90;;;;;;5071229;28;20226;-73
2022/08/25 05:34:25;;;;;;;14.27;10.73;;;16.10;99.90;;;;;;5075314;28;20191;-73
2022/08/25 05:36:58;;;;;;;14.30;10.38;;;16.10;99.90;;;;;;5072889;28;20213;-75
2022/08/25 05:39:31;;;;;;;13.55;10.30;;;16.10;99.90;;;;;;5075232;28;20195;-73
2022/08/25 05:41:59;;;;;;;14.77;10.98;;;16.10;99.90;;;;;;5075033;28;20214;-74
2022/08/25 05:44:28;;;;;;;12.85;9.50;;;16.10;99.90;;;;;;5057173;28;20203;-75
2022/08/25 05:46:58;;;;;;;14.35;10.13;;;16.10;99.90;;;;;;5071206;28;20552;-75
2022/08/25 05:49:27;;;;;;;12.40;9.48;;;16.00;99.90;;;;;;5075229;28;20210;-75
2022/08/25 05:51:56;;;;;;;13.88;10.45;;;16.10;99.90;;;;;;5068876;28;20563;-72
2022/08/25 05:54:25;;;;;;;18.67;13.70;;;16.10;99.90;;;;;;5074984;28;20191;-74
2022/08/25 05:56:55;;;;;;;14.15;11.07;;;16.10;99.90;;;;;;5074883;28;20685;-73
2022/08/25 05:59:24;;;;;;;16.00;11.38;;;16.10;99.90;;;;;;5074940;28;20570;-75
2022/08/25 06:04:41;;;;;;;14.90;11.00;;;16.10;99.90;;;;;;5074850;28;20187;-74
2022/08/25 06:07:10;;;;;;;13.95;10.55;;;16.10;99.90;;;;;;5064764;28;20203;-75
2022/08/25 06:09:39;;;;;;;14.07;10.55;;;16.10;99.90;;;;;;5054649;28;20196;-75
2022/08/25 06:12:09;;;;;;;12.60;9.70;;;16.20;99.90;;;;;;5065363;28;20241;-73
2022/08/25 06:14:38;;;;;;;13.98;10.68;;;16.20;99.90;;;;;;5074956;28;20202;-75
2022/08/25 06:17:07;;;;;;;13.82;10.88;;;16.30;99.90;;;;;;5074438;28;20195;-75
2022/08/25 06:19:36;;;;;;;15.45;10.82;;;16.20;99.90;;;;;;5074554;28;20198;-75
2022/08/25 06:22:10;;;;;;;14.18;10.18;;;16.30;99.90;;;;;;5070648;28;20208;-75
2022/08/25 06:24:38;;;;;;;12.52;9.52;;;16.40;99.90;;;;;;5072165;28;20199;-74
2022/08/25 06:27:07;;;;;;;13.93;10.57;;;16.50;99.90;;;;;;5072009;28;20645;-75
2022/08/25 06:29:36;;;;;;;14.02;11.00;;;16.50;99.90;;;;;;5074301;28;20214;-74
2022/08/25 06:32:06;;;;;;;15.60;11.27;;;16.50;99.90;;;;;;5074096;28;20237;-74
2022/08/25 06:34:35;;;;;;;14.75;11.23;;;16.50;99.90;;;;;;5071040;28;20218;-73
2022/08/25 06:37:04;;;;;;;17.70;11.55;;;16.50;99.90;;;;;;5071533;28;20692;-74
2022/08/25 06:39:34;;;;;;;19.88;12.88;;;16.60;99.90;;;;;;5074058;28;20191;-73
2022/08/25 06:42:03;;;;;;;15.13;12.05;;;16.70;99.90;;;;;;5071989;28;20603;-75
2022/08/25 06:44:31;;;;;;;19.42;14.20;;;16.70;99.90;;;;;;5073718;28;20214;-76
2022/08/25 06:47:00;;;;;;;21.08;15.27;;;16.80;99.90;;;;;;5073961;28;20199;-74
2022/08/25 06:49:29;;;;;;;18.60;14.82;;;16.90;99.90;;;;;;5071603;28;20196;-74
2022/08/25 06:52:04;;;;;;;18.10;14.23;;;17.10;99.90;;;;;;5068757;28;20609;-75
2022/08/25 06:54:34;;;;;;;21.30;14.43;;;17.20;99.90;;;;;;5072244;28;20203;-73
2022/08/25 06:57:03;;;;;;;16.48;13.45;;;17.30;99.90;;;;;;5073739;28;20187;-75
2022/08/25 06:59:32;;;;;;;21.00;15.95;;;17.40;99.90;;;;;;5073641;28;20184;-75
2022/08/25 07:02:04;;;;;;;20.70;15.15;;;17.60;99.90;;;;;;5070349;28;20234;-76
2022/08/25 07:04:33;;;;;;;20.98;15.38;;;17.70;99.90;;;;;;5068385;28;20206;-74
2022/08/25 07:07:03;;;;;;;19.45;15.85;;;17.70;99.90;;;;;;5065601;28;20194;-74
2022/08/25 07:09:32;;;;;;;19.80;15.13;;;17.90;99.90;;;;;;5052947;28;20693;-75
2022/08/25 07:12:08;;;;;;;20.70;15.50;;;18.00;99.90;;;;;;5052025;28;20231;-75
2022/08/25 07:14:37;;;;;;;21.90;15.15;;;18.10;99.90;;;;;;5067722;28;20203;-73
2022/08/25 07:17:06;;;;;;;23.13;15.35;;;18.20;99.90;;;;;;5072136;28;20210;-74
2022/08/25 07:19:40;;;;;;;21.55;16.00;;;18.30;99.90;;;;;;5070872;28;20202;-74
2022/08/25 07:22:08;;;;;;;24.08;17.30;;;18.40;99.90;;;;;;5071638;28;20306;-74
2022/08/25 07:24:37;;;;;;;23.38;17.30;;;18.60;99.90;;;;;;5068308;28;20240;-73
2022/08/25 07:27:07;;;;;;;24.40;16.67;;;18.80;99.90;;;;;;5070780;28;20203;-75
2022/08/25 07:29:37;;;;;;;25.23;17.13;;;18.90;99.90;;;;;;5071274;28;20673;-74
2022/08/25 07:32:26;;;;;;;21.83;17.17;;;19.00;99.90;;;;;;5071732;28;20223;-74
2022/08/25 07:37:42;;;;;;;20.63;16.15;;;19.20;99.90;;;;;;5073079;28;20202;-74
2022/08/25 07:40:21;;;;;;;23.35;16.90;;;19.40;99.90;;;;;;5072850;28;20183;-75
2022/08/25 07:42:54;;;;;;;22.70;17.08;;;19.70;99.90;;;;;;5072814;28;20202;-74
2022/08/25 07:45:29;;;;;;;22.20;17.08;;;19.90;99.90;;;;;;5068288;28;20199;-74
2022/08/25 07:47:59;;;;;;;21.65;17.83;;;20.00;99.90;;;;;;5072820;28;20646;-74
2022/08/25 07:50:30;;;;;;;25.52;18.35;;;20.00;99.90;;;;;;5068106;28;20226;-75
2022/08/25 07:52:59;;;;;;;23.25;16.77;;;20.00;99.90;;;;;;5072105;28;20219;-76
2022/08/25 07:55:29;;;;;;;24.48;17.60;;;20.10;99.90;;;;;;5067899;28;20214;-75
2022/08/25 07:57:59;;;;;;;23.67;18.67;;;20.30;99.90;;;;;;5066868;28;20213;-77
2022/08/25 08:00:32;;;;;;;19.90;16.45;;;20.40;99.90;;;;;;5067904;28;20720;-74
2022/08/25 08:03:05;;;;;;;20.17;16.67;;;20.50;99.90;;;;;;5068889;28;20195;-75
2022/08/25 08:05:36;;;;;;;21.50;17.40;;;20.60;99.90;;;;;;5066941;28;20192;-75
2022/08/25 08:08:05;;;;;;;21.20;15.80;;;20.60;99.90;;;;;;5069153;28;20195;-76
2022/08/25 08:10:34;;;;;;;23.60;17.48;;;20.70;99.90;;;;;;5071941;28;20234;-75
2022/08/25 08:13:25;;;;;;;20.20;16.77;;;21.00;99.90;;;;;;5067531;28;20218;-76
2022/08/25 08:15:54;;;;;;;24.20;16.83;;;21.20;99.90;;;;;;5071173;28;20202;-74
2022/08/25 08:18:23;;;;;;;21.63;15.80;;;21.30;99.90;;;;;;5072443;28;20183;-75
2022/08/25 08:20:52;;;;;;;21.90;17.25;;;21.40;99.90;;;;;;5049563;28;20238;-76
2022/08/25 08:23:26;;;;;;;21.08;17.02;;;21.60;99.90;;;;;;5052956;28;20195;-75
2022/08/25 08:25:55;;;;;;;23.75;17.73;;;21.80;99.90;;;;;;5052337;28;20190;-75
2022/08/25 08:28:26;;;;;;;20.83;17.25;;;22.00;99.90;;;;;;5052278;28;20685;-75
2022/08/25 08:30:55;;;;;;;21.38;17.20;;;22.00;99.90;;;;;;5039160;28;20229;-75
2022/08/25 08:33:25;;;;;;;26.15;17.65;;;22.00;99.90;;;;;;5070799;28;20241;-75
2022/08/25 08:36:04;;;;;;;20.00;15.73;;;22.10;99.90;;;;;;5049845;28;20226;-75
2022/08/25 08:38:34;;;;;;;18.60;13.65;;;22.10;99.90;;;;;;5062173;28;20195;-75
2022/08/25 08:44:37;;;;;;;18.10;14.20;;;22.70;99.90;;;;;;5072159;28;20191;-76
2022/08/25 08:47:13;;;;;;;14.68;12.55;;;23.20;99.90;;;;;;5072163;28;20175;-75
2022/08/25 08:49:52;;;;;;;18.90;14.07;;;23.30;99.90;;;;;;5051880;28;20216;-77
2022/08/25 08:52:28;;;;;;;16.77;12.15;;;23.70;99.90;;;;;;5064113;28;20225;-75
2022/08/25 08:55:01;;;;;;;14.30;12.18;;;23.70;99.90;;;;;;5070950;28;20199;-74
2022/08/25 08:57:38;;;;;;;12.48;10.23;;;23.70;99.90;;;;;;5069045;28;20567;-76
2022/08/25 09:00:10;;;;;;;11.50;8.45;;;24.00;99.90;;;;;;5068172;28;20206;-75
2022/08/25 09:02:48;;;;;;;9.25;8.05;;;24.30;99.90;;;;;;5071973;28;20194;-78
2022/08/25 09:05:22;;;;;;;10.45;9.05;;;24.50;99.80;;;;;;5070700;28;20195;-75
2022/08/25 09:07:56;;;;;;;12.52;9.32;;;24.80;98.90;;;;;;5068582;28;20210;-77
2022/08/25 09:10:28;;;;;;;10.30;9.02;;;25.10;97.90;;;;;;5066634;28;20219;-76
2022/08/25 09:13:05;;;;;;;13.02;8.48;;;25.30;96.80;;;;;;5075635;28;20211;-75
2022/08/25 09:18:56;;;;;;;11.70;10.30;;;25.30;97.60;;;;;;5075556;28;20187;-75
2022/08/25 09:21:30;;;;;;;11.63;10.23;;;25.20;98.10;;;;;;5053482;28;20223;-73
2022/08/25 09:24:21;;;;;;;10.50;9.40;;;25.50;97.10;;;;;;5070988;28;20265;-77
2022/08/25 09:27:02;;;;;;;11.10;8.15;;;25.50;95.80;;;;;;5070183;28;20229;-74
2022/08/25 09:29:42;;;;;;;9.75;8.07;;;26.00;93.90;;;;;;5057399;28;20195;-75
2022/08/25 09:32:12;;;;;;;9.98;8.50;;;26.10;94.40;;;;;;5056357;28;20223;-75
2022/08/25 09:34:44;;;;;;;13.70;9.48;;;26.10;94.80;;;;;;5055307;28;20184;-74
2022/08/25 09:37:13;;;;;;;10.50;8.77;;;26.20;93.50;;;;;;5055573;28;20199;-75
2022/08/25 09:39:42;;;;;;;11.38;8.90;;;26.30;93.70;;;;;;5056989;28;20198;-76
2022/08/25 09:42:10;;;;;;;11.93;9.80;;;26.70;91.90;;;;;;5053618;28;20712;-75
2022/08/25 09:44:42;;;;;;;10.18;8.82;;;26.90;92.10;;;;;;5066198;28;20204;-74
2022/08/25 09:47:23;;;;;;;10.07;8.85;;;26.90;92.50;;;;;;5055118;28;20556;-74
2022/08/25 09:49:59;;;;;;;8.98;7.78;;;26.60;92.90;;;;;;5068495;28;20199;-77
2022/08/25 09:52:34;;;;;;;9.80;7.38;;;27.00;90.90;;;;;;5063423;28;22101;-74
2022/08/25 09:55:29;;;;;;;8.15;7.35;;;26.90;91.50;;;;;;5068180;28;20203;-76
2022/08/25 09:58:00;;;;;;;9.82;8.25;;;26.80;92.10;;;;;;5054988;28;20643;-75
2022/08/25 10:00:37;;;;;;;11.65;8.85;;;26.60;91.30;;;;;;5053778;28;20226;-76
2022/08/25 10:03:11;;;;;;;12.25;8.10;;;26.50;91.30;;;;;;5054902;28;20199;-77
2022/08/25 10:06:01;;;;;;;9.73;7.28;;;26.50;91.90;;;;;;5065421;28;20559;-76
2022/08/25 10:08:36;;;;;;;8.85;7.70;;;26.60;92.10;;;;;;5072430;28;20249;-75
2022/08/25 10:11:11;;;;;;;11.77;9.45;;;26.80;92.10;;;;;;5072968;28;20219;-75
2022/08/25 10:13:43;;;;;;;9.70;7.60;;;27.00;90.20;;;;;;5074555;28;20657;-76
2022/08/25 10:16:22;;;;;;;11.23;7.40;;;27.20;89.70;;;;;;5074470;28;20203;-75
2022/08/25 10:19:07;;;;;;;9.18;7.57;;;27.50;88.00;;;;;;5070267;28;20199;-76
2022/08/25 10:21:38;;;;;;;8.60;7.70;;;27.70;86.80;;;;;;5072131;28;20226;-75
2022/08/25 10:24:08;;;;;;;10.48;7.97;;;27.70;87.60;;;;;;5057655;28;20218;-75
2022/08/25 10:26:48;;;;;;;8.98;8.07;;;27.80;86.50;;;;;;5054610;28;20849;-77
2022/08/25 10:29:30;;;;;;;9.23;7.43;;;27.70;88.00;;;;;;5066804;28;20682;-74
2022/08/25 10:32:07;;;;;;;11.10;8.52;;;27.70;88.20;;;;;;5074185;28;20226;-75
2022/08/25 10:34:47;;;;;;;10.55;8.48;;;27.60;88.50;;;;;;5060187;28;20227;-74
2022/08/25 10:37:31;;;;;;;11.02;8.75;;;27.60;88.50;;;;;;5060003;28;20203;-75
2022/08/25 10:40:15;;;;;;;10.50;8.60;;;27.70;87.30;;;;;;5074007;28;20556;-75
2022/08/25 10:42:56;;;;;;;10.23;8.30;;;27.70;89.30;;;;;;5067857;28;20200;-75
2022/08/25 10:45:42;;;;;;;9.25;8.20;;;27.90;85.70;;;;;;5056761;28;20207;-73
2022/08/25 10:48:38;;;;;;;10.35;7.82;;;27.90;85.10;;;;;;5068570;28;20556;-74
2022/08/25 10:51:22;;;;;;;11.82;8.55;;;27.80;85.90;;;;;;5065409;28;20211;-74
2022/08/25 10:54:00;;;;;;;10.25;8.50;;;27.60;86.60;;;;;;5053708;28;20222;-74
2022/08/25 10:56:34;;;;;;;9.38;8.02;;;27.70;86.70;;;;;;5055561;28;20959;-74
2022/08/25 10:59:26;;;;;;;11.50;8.88;;;27.90;87.40;;;;;;5073762;28;20187;-74
2022/08/25 11:02:28;;;;;;;10.90;8.98;;;28.10;85.50;;;;;;5070891;28;20230;-75
2022/08/25 11:05:02;;;;;;;11.00;9.13;;;27.90;89.80;;;;;;5052520;28;20204;-75
2022/08/25 11:07:36;;;;;;;11.18;9.25;;;27.70;89.70;;;;;;5058160;28;20206;-75
2022/08/25 11:10:10;;;;;;;10.48;8.63;;;27.60;87.00;;;;;;5053521;28;20669;-76
2022/08/25 11:12:45;;;;;;;14.32;10.27;;;27.70;86.10;;;;;;5062526;28;20187;-75
2022/08/25 11:15:22;;;;;;;10.50;9.40;;;27.60;86.20;;;;;;5070975;28;20215;-76
2022/08/25 11:17:55;;;;;;;10.48;8.80;;;27.40;85.50;;;;;;5073355;28;20198;-75
2022/08/25 11:20:28;;;;;;;10.70;8.55;;;27.40;89.60;;;;;;5067144;28;20342;-74
2022/08/25 11:23:10;;;;;;;11.80;8.38;;;27.40;87.30;;;;;;5071571;28;20579;-75
2022/08/25 11:25:43;;;;;;;10.85;9.02;;;27.60;86.20;;;;;;5073163;28;20179;-75
2022/08/25 11:28:16;;;;;;;9.40;8.10;;;27.70;87.60;;;;;;5073237;28;20184;-75
2022/08/25 11:30:45;;;;;;;10.82;8.40;;;28.00;88.30;;;;;;5063629;28;20591;-75
2022/08/25 11:33:16;;;;;;;9.10;7.32;;;28.50;86.20;;;;;;5055186;28;20567;-75
2022/08/25 11:35:51;;;;;;;12.38;8.15;;;28.70;82.40;;;;;;5066129;28;20196;-74
2022/08/25 11:38:36;;;;;;;8.95;7.82;;;28.90;81.40;;;;;;5055470;28;20210;-75
2022/08/25 11:41:15;;;;;;;9.68;7.53;;;28.70;83.10;;;;;;5065525;28;20222;-75
2022/08/25 11:44:08;;;;;;;11.02;7.97;;;28.70;82.00;;;;;;5071863;28;20194;-75
2022/08/25 11:46:59;;;;;;;10.25;8.13;;;28.70;83.20;;;;;;5071687;28;20265;-75
2022/08/25 11:49:49;;;;;;;8.75;7.75;;;28.50;83.40;;;;;;5070529;28;20539;-76
2022/08/25 11:52:45;;;;;;;9.65;8.15;;;28.50;85.60;;;;;;5063663;28;20223;-74
2022/08/25 11:55:18;;;;;;;11.90;7.18;;;28.30;87.00;;;;;;5067077;28;20222;-74
2022/08/25 11:57:52;;;;;;;8.88;7.70;;;28.50;82.30;;;;;;5070512;28;20206;-77
2022/08/25 12:00:37;;;;;;;8.02;7.13;;;28.40;83.70;;;;;;5067647;28;20637;-73
2022/08/25 12:03:50;;;;;;;8.68;6.82;;;28.40;81.60;;;;;;5069979;28;20203;-74
2022/08/25 12:06:26;;;;;;;9.50;7.13;;;28.50;80.20;;;;;;4971711;28;20214;-75
2022/08/25 12:09:17;;;;;;;8.65;6.93;;;28.50;80.30;;;;;;5045579;28;20210;-75
2022/08/25 12:11:54;;;;;;;9.32;7.18;;;28.80;80.20;;;;;;5052365;28;20218;-75
2022/08/25 12:14:45;;;;;;;8.50;7.18;;;28.90;79.80;;;;;;5059499;28;20217;-76
2022/08/25 12:17:24;;;;;;;8.50;7.18;;;28.70;82.80;;;;;;5072459;28;20218;-76
2022/08/25 12:19:57;;;;;;;8.68;6.88;;;28.60;82.90;;;;;;5063057;28;20681;-76
2022/08/25 12:22:53;;;;;;;10.40;7.35;;;28.80;79.40;;;;;;5052310;28;20188;-75
2022/08/25 12:25:38;;;;;;;7.68;6.20;;;29.00;78.40;;;;;;5051195;28;20195;-76
2022/08/25 12:28:33;;;;;;;7.93;6.43;;;29.10;77.40;;;;;;5035911;28;20196;-76
2022/08/25 12:31:10;;;;;;;8.68;7.32;;;29.00;78.50;;;;;;5072215;28;20215;-75
2022/08/25 12:33:51;;;;;;;7.75;6.78;;;29.00;81.00;;;;;;5066355;28;20191;-75
2022/08/25 12:36:29;;;;;;;8.45;7.18;;;29.20;79.10;;;;;;5069040;28;20183;-75
2022/08/25 12:39:16;;;;;;;7.80;6.80;;;29.00;81.80;;;;;;5066929;28;20198;-75
2022/08/25 12:41:57;;;;;;;9.02;7.13;;;29.10;79.50;;;;;;5061056;28;20545;-74
2022/08/25 12:44:42;;;;;;;8.00;6.85;;;28.90;81.50;;;;;;5072860;28;20207;-74
2022/08/25 12:47:26;;;;;;;9.65;6.80;;;28.80;79.90;;;;;;5075108;28;20198;-75
2022/08/25 12:50:28;;;;;;;6.80;6.10;;;28.90;77.60;;;;;;5056365;28;20210;-75
2022/08/25 12:53:01;;;;;;;7.35;6.65;;;28.80;78.50;;;;;;5072174;28;20205;-71
2022/08/25 12:55:30;;;;;;;8.15;7.03;;;28.90;78.20;;;;;;5072859;28;20215;-74
2022/08/25 12:58:00;;;;;;;10.25;6.90;;;28.90;81.00;;;;;;5072181;28;20202;-72
2022/08/25 13:00:47;;;;;;;6.93;6.22;;;29.00;80.00;;;;;;5071134;28;20705;-73
2022/08/25 13:03:44;;;;;;;9.52;7.10;;;28.90;82.20;;;;;;5065518;28;20195;-73
2022/08/25 13:06:33;;;;;;;8.38;6.90;;;28.80;81.40;;;;;;5075867;28;20188;-73
2022/08/25 13:09:49;;;;;;;11.43;7.43;;;28.80;80.60;;;;;;5075832;28;20262;-74
2022/08/25 13:12:23;;;;;;;8.05;7.25;;;28.80;80.20;;;;;;5074602;28;20218;-75
2022/08/25 13:14:54;;;;;;;7.40;6.53;;;28.90;79.00;;;;;;5074361;28;20229;-74
2022/08/25 13:17:29;;;;;;;9.40;7.22;;;28.80;78.60;;;;;;5075497;28;20566;-75
2022/08/25 13:20:15;;;;;;;9.13;6.90;;;28.70;77.40;;;;;;5075435;28;20194;-75
2022/08/25 13:22:46;;;;;;;11.45;6.90;;;28.50;78.70;;;;;;5075504;28;20210;-73
2022/08/25 13:25:19;;;;;;;10.18;7.50;;;28.50;79.30;;;;;;5075613;28;20198;-75